sensor_id;sensor_type;location;lat;lon;timestamp;P1;durP1;ratioP1;P2;durP2;ratioP2
4525;SDS011;2275;52.208;8.804;2022-10-16T00:01:52;6.68;;;3.80;;
4525;SDS011;2275;52.208;8.804;2022-10-16T00:04:19;6.03;;;3.83;;
4525;SDS011;2275;52.208;8.804;2022-10-16T00:06:47;5.57;;;4.03;;
4525;SDS011;2275;52.208;8.804;2022-10-16T00:09:14;7.53;;;4.30;;
4525;SDS011;2275;52.208;8.804;2022-10-16T00:11:41;8.30;;;4.25;;
4525;SDS011;2275;52.208;8.804;2022-10-16T00:14:09;5.70;;;4.30;;
4525;SDS011;2275;52.208;8.804;2022-10-16T00:16:35;7.35;;;3.70;;
4525;SDS011;2275;52.208;8.804;2022-10-16T00:19:03;8.35;;;4.28;;
4525;SDS011;2275;52.208;8.804;2022-10-16T00:21:30;7.78;;;4.68;;
4525;SDS011;2275;52.208;8.804;2022-10-16T00:23:58;8.40;;;4.70;;
4525;SDS011;2275;52.208;8.804;2022-10-16T00:26:26;7.12;;;4.00;;
4525;SDS011;2275;52.208;8.804;2022-10-16T00:28:53;6.95;;;4.30;;
4525;SDS011;2275;52.208;8.804;2022-10-16T00:31:21;7.35;;;4.00;;
4525;SDS011;2275;52.208;8.804;2022-10-16T00:33:48;8.50;;;4.60;;
4525;SDS011;2275;52.208;8.804;2022-10-16T00:36:16;7.12;;;4.55;;
4525;SDS011;2275;52.208;8.804;2022-10-16T00:38:42;6.28;;;3.80;;
4525;SDS011;2275;52.208;8.804;2022-10-16T00:41:11;12.13;;;4.00;;
4525;SDS011;2275;52.208;8.804;2022-10-16T00:43:39;9.65;;;4.40;;
4525;SDS011;2275;52.208;8.804;2022-10-16T00:46:13;10.25;;;4.57;;
4525;SDS011;2275;52.208;8.804;2022-10-16T00:48:40;15.13;;;4.10;;
4525;SDS011;2275;52.208;8.804;2022-10-16T00:51:07;5.87;;;3.92;;
4525;SDS011;2275;52.208;8.804;2022-10-16T00:53:35;10.40;;;4.35;;
4525;SDS011;2275;52.208;8.804;2022-10-16T00:56:03;9.38;;;4.30;;
4525;SDS011;2275;52.208;8.804;2022-10-16T00:58:31;9.00;;;4.40;;
4525;SDS011;2275;52.208;8.804;2022-10-16T01:00:58;10.15;;;4.60;;
4525;SDS011;2275;52.208;8.804;2022-10-16T01:03:27;6.90;;;3.95;;
4525;SDS011;2275;52.208;8.804;2022-10-16T01:08:52;7.70;;;3.83;;
4525;SDS011;2275;52.208;8.804;2022-10-16T01:12:29;10.20;;;4.10;;
4525;SDS011;2275;52.208;8.804;2022-10-16T01:14:08;7.70;;;4.30;;
4525;SDS011;2275;52.208;8.804;2022-10-16T01:17:04;8.57;;;3.97;;
4525;SDS011;2275;52.208;8.804;2022-10-16T01:19:20;9.15;;;3.70;;
4525;SDS011;2275;52.208;8.804;2022-10-16T01:21:47;9.43;;;3.75;;
4525;SDS011;2275;52.208;8.804;2022-10-16T01:29:29;13.18;;;3.75;;
4525;SDS011;2275;52.208;8.804;2022-10-16T01:31:59;7.35;;;3.70;;
4525;SDS011;2275;52.208;8.804;2022-10-16T01:34:29;4.15;;;3.10;;
4525;SDS011;2275;52.208;8.804;2022-10-16T01:36:57;7.62;;;3.60;;
4525;SDS011;2275;52.208;8.804;2022-10-16T01:39:24;8.27;;;3.75;;
4525;SDS011;2275;52.208;8.804;2022-10-16T01:41:53;7.62;;;3.90;;
4525;SDS011;2275;52.208;8.804;2022-10-16T01:44:21;7.95;;;3.70;;
4525;SDS011;2275;52.208;8.804;2022-10-16T01:46:47;8.70;;;4.30;;
4525;SDS011;2275;52.208;8.804;2022-10-16T01:49:14;11.93;;;4.60;;
4525;SDS011;2275;52.208;8.804;2022-10-16T01:51:41;7.20;;;3.40;;
4525;SDS011;2275;52.208;8.804;2022-10-16T01:54:08;9.02;;;4.20;;
4525;SDS011;2275;52.208;8.804;2022-10-16T01:56:36;10.20;;;4.30;;
4525;SDS011;2275;52.208;8.804;2022-10-16T01:59:07;12.30;;;4.18;;
4525;SDS011;2275;52.208;8.804;2022-10-16T02:01:34;11.35;;;4.57;;
4525;SDS011;2275;52.208;8.804;2022-10-16T02:04:03;12.35;;;4.40;;
4525;SDS011;2275;52.208;8.804;2022-10-16T02:06:30;11.00;;;4.70;;
4525;SDS011;2275;52.208;8.804;2022-10-16T02:08:58;8.45;;;3.80;;
4525;SDS011;2275;52.208;8.804;2022-10-16T02:11:26;6.90;;;3.70;;
4525;SDS011;2275;52.208;8.804;2022-10-16T02:13:58;8.15;;;4.10;;
4525;SDS011;2275;52.208;8.804;2022-10-16T02:16:41;7.93;;;4.40;;
4525;SDS011;2275;52.208;8.804;2022-10-16T02:19:06;7.72;;;4.10;;
4525;SDS011;2275;52.208;8.804;2022-10-16T02:21:37;11.68;;;4.35;;
4525;SDS011;2275;52.208;8.804;2022-10-16T02:24:07;9.30;;;4.10;;
4525;SDS011;2275;52.208;8.804;2022-10-16T02:26:35;7.53;;;3.67;;
4525;SDS011;2275;52.208;8.804;2022-10-16T02:29:03;18.95;;;4.30;;
4525;SDS011;2275;52.208;8.804;2022-10-16T02:31:29;8.00;;;3.80;;
4525;SDS011;2275;52.208;8.804;2022-10-16T02:33:57;9.73;;;4.40;;
4525;SDS011;2275;52.208;8.804;2022-10-16T02:36:24;8.02;;;4.37;;
4525;SDS011;2275;52.208;8.804;2022-10-16T02:38:52;8.93;;;5.12;;
4525;SDS011;2275;52.208;8.804;2022-10-16T02:41:20;12.27;;;5.78;;
4525;SDS011;2275;52.208;8.804;2022-10-16T02:43:46;12.13;;;5.22;;
4525;SDS011;2275;52.208;8.804;2022-10-16T02:46:13;9.20;;;5.00;;
4525;SDS011;2275;52.208;8.804;2022-10-16T02:48:39;11.50;;;5.75;;
4525;SDS011;2275;52.208;8.804;2022-10-16T02:51:07;10.60;;;4.40;;
4525;SDS011;2275;52.208;8.804;2022-10-16T02:53:34;9.45;;;5.10;;
4525;SDS011;2275;52.208;8.804;2022-10-16T02:56:01;10.23;;;5.80;;
4525;SDS011;2275;52.208;8.804;2022-10-16T02:58:29;8.80;;;5.80;;
4525;SDS011;2275;52.208;8.804;2022-10-16T03:00:56;9.48;;;5.30;;
4525;SDS011;2275;52.208;8.804;2022-10-16T03:03:23;11.30;;;5.85;;
4525;SDS011;2275;52.208;8.804;2022-10-16T03:05:49;11.55;;;5.70;;
4525;SDS011;2275;52.208;8.804;2022-10-16T03:08:17;11.77;;;5.35;;
4525;SDS011;2275;52.208;8.804;2022-10-16T03:10:45;8.73;;;4.80;;
4525;SDS011;2275;52.208;8.804;2022-10-16T03:13:12;12.33;;;5.47;;
4525;SDS011;2275;52.208;8.804;2022-10-16T03:15:39;14.65;;;4.97;;
4525;SDS011;2275;52.208;8.804;2022-10-16T03:18:06;12.85;;;5.35;;
4525;SDS011;2275;52.208;8.804;2022-10-16T03:20:33;9.70;;;4.57;;
4525;SDS011;2275;52.208;8.804;2022-10-16T03:23:01;11.80;;;5.40;;
4525;SDS011;2275;52.208;8.804;2022-10-16T03:25:28;10.45;;;5.07;;
4525;SDS011;2275;52.208;8.804;2022-10-16T03:27:56;7.18;;;4.70;;
4525;SDS011;2275;52.208;8.804;2022-10-16T03:30:23;8.68;;;4.35;;
4525;SDS011;2275;52.208;8.804;2022-10-16T03:32:50;10.30;;;4.85;;
4525;SDS011;2275;52.208;8.804;2022-10-16T03:35:21;8.68;;;3.92;;
4525;SDS011;2275;52.208;8.804;2022-10-16T03:37:49;7.30;;;4.00;;
4525;SDS011;2275;52.208;8.804;2022-10-16T03:40:16;6.15;;;3.83;;
4525;SDS011;2275;52.208;8.804;2022-10-16T03:42:43;7.75;;;3.97;;
4525;SDS011;2275;52.208;8.804;2022-10-16T03:45:10;8.40;;;4.00;;
4525;SDS011;2275;52.208;8.804;2022-10-16T03:47:37;6.50;;;3.53;;
4525;SDS011;2275;52.208;8.804;2022-10-16T03:50:04;7.78;;;3.80;;
4525;SDS011;2275;52.208;8.804;2022-10-16T03:52:32;6.93;;;3.83;;
4525;SDS011;2275;52.208;8.804;2022-10-16T03:55:00;7.35;;;4.07;;
4525;SDS011;2275;52.208;8.804;2022-10-16T03:57:27;11.93;;;3.78;;
4525;SDS011;2275;52.208;8.804;2022-10-16T03:59:56;9.27;;;3.95;;
4525;SDS011;2275;52.208;8.804;2022-10-16T04:02:23;7.22;;;4.40;;
4525;SDS011;2275;52.208;8.804;2022-10-16T04:04:50;15.50;;;3.80;;
4525;SDS011;2275;52.208;8.804;2022-10-16T04:07:17;9.07;;;3.90;;
4525;SDS011;2275;52.208;8.804;2022-10-16T04:09:44;6.35;;;3.42;;
4525;SDS011;2275;52.208;8.804;2022-10-16T04:12:11;8.57;;;4.00;;
4525;SDS011;2275;52.208;8.804;2022-10-16T04:14:38;8.75;;;3.85;;
4525;SDS011;2275;52.208;8.804;2022-10-16T04:17:05;8.07;;;3.65;;
4525;SDS011;2275;52.208;8.804;2022-10-16T04:19:32;5.62;;;3.37;;
4525;SDS011;2275;52.208;8.804;2022-10-16T04:22:00;11.38;;;3.62;;
4525;SDS011;2275;52.208;8.804;2022-10-16T04:24:27;5.87;;;3.12;;
4525;SDS011;2275;52.208;8.804;2022-10-16T04:26:55;9.10;;;3.92;;
4525;SDS011;2275;52.208;8.804;2022-10-16T04:29:22;6.07;;;3.35;;
4525;SDS011;2275;52.208;8.804;2022-10-16T04:31:49;5.35;;;3.00;;
4525;SDS011;2275;52.208;8.804;2022-10-16T04:34:16;5.72;;;3.10;;
4525;SDS011;2275;52.208;8.804;2022-10-16T04:36:43;9.00;;;3.53;;
4525;SDS011;2275;52.208;8.804;2022-10-16T04:39:10;7.25;;;3.37;;
4525;SDS011;2275;52.208;8.804;2022-10-16T04:41:37;4.55;;;3.12;;
4525;SDS011;2275;52.208;8.804;2022-10-16T04:44:05;5.62;;;3.00;;
4525;SDS011;2275;52.208;8.804;2022-10-16T04:46:32;4.47;;;2.90;;
4525;SDS011;2275;52.208;8.804;2022-10-16T04:48:59;5.82;;;3.28;;
4525;SDS011;2275;52.208;8.804;2022-10-16T04:51:26;8.00;;;3.03;;
4525;SDS011;2275;52.208;8.804;2022-10-16T04:53:53;6.78;;;3.05;;
4525;SDS011;2275;52.208;8.804;2022-10-16T04:56:21;8.23;;;3.10;;
4525;SDS011;2275;52.208;8.804;2022-10-16T04:58:48;4.60;;;2.87;;
4525;SDS011;2275;52.208;8.804;2022-10-16T05:01:16;5.95;;;2.90;;
4525;SDS011;2275;52.208;8.804;2022-10-16T05:03:42;6.68;;;2.67;;
4525;SDS011;2275;52.208;8.804;2022-10-16T05:06:10;4.43;;;2.45;;
4525;SDS011;2275;52.208;8.804;2022-10-16T05:08:37;6.45;;;2.90;;
4525;SDS011;2275;52.208;8.804;2022-10-16T05:11:03;5.00;;;2.60;;
4525;SDS011;2275;52.208;8.804;2022-10-16T05:13:31;5.62;;;2.67;;
4525;SDS011;2275;52.208;8.804;2022-10-16T05:15:58;4.10;;;2.33;;
4525;SDS011;2275;52.208;8.804;2022-10-16T05:18:25;6.95;;;2.62;;
4525;SDS011;2275;52.208;8.804;2022-10-16T05:20:52;4.72;;;2.60;;
4525;SDS011;2275;52.208;8.804;2022-10-16T05:23:19;4.95;;;2.95;;
4525;SDS011;2275;52.208;8.804;2022-10-16T05:25:52;3.08;;;2.03;;
4525;SDS011;2275;52.208;8.804;2022-10-16T05:28:19;3.78;;;2.60;;
4525;SDS011;2275;52.208;8.804;2022-10-16T05:30:46;4.22;;;2.00;;
4525;SDS011;2275;52.208;8.804;2022-10-16T05:33:13;3.40;;;2.25;;
4525;SDS011;2275;52.208;8.804;2022-10-16T05:35:40;4.25;;;2.20;;
4525;SDS011;2275;52.208;8.804;2022-10-16T05:38:08;4.28;;;2.40;;
4525;SDS011;2275;52.208;8.804;2022-10-16T05:40:34;4.15;;;2.10;;
4525;SDS011;2275;52.208;8.804;2022-10-16T05:43:02;5.35;;;2.40;;
4525;SDS011;2275;52.208;8.804;2022-10-16T05:45:29;3.33;;;2.20;;
4525;SDS011;2275;52.208;8.804;2022-10-16T05:47:57;5.50;;;2.30;;
4525;SDS011;2275;52.208;8.804;2022-10-16T05:50:24;3.20;;;2.25;;
4525;SDS011;2275;52.208;8.804;2022-10-16T05:52:52;5.00;;;2.50;;
4525;SDS011;2275;52.208;8.804;2022-10-16T05:55:18;4.10;;;2.30;;
4525;SDS011;2275;52.208;8.804;2022-10-16T05:57:45;5.50;;;2.10;;
4525;SDS011;2275;52.208;8.804;2022-10-16T06:00:13;5.03;;;2.25;;
4525;SDS011;2275;52.208;8.804;2022-10-16T06:02:41;3.75;;;1.80;;
4525;SDS011;2275;52.208;8.804;2022-10-16T06:05:08;4.10;;;2.05;;
4525;SDS011;2275;52.208;8.804;2022-10-16T06:07:35;3.80;;;2.12;;
4525;SDS011;2275;52.208;8.804;2022-10-16T06:10:03;2.75;;;1.80;;
4525;SDS011;2275;52.208;8.804;2022-10-16T06:12:31;5.50;;;2.42;;
4525;SDS011;2275;52.208;8.804;2022-10-16T06:14:58;4.22;;;1.98;;
4525;SDS011;2275;52.208;8.804;2022-10-16T06:17:25;3.60;;;2.17;;
4525;SDS011;2275;52.208;8.804;2022-10-16T06:19:52;3.08;;;2.08;;
4525;SDS011;2275;52.208;8.804;2022-10-16T06:22:19;3.17;;;2.00;;
4525;SDS011;2275;52.208;8.804;2022-10-16T06:24:46;4.47;;;1.92;;
4525;SDS011;2275;52.208;8.804;2022-10-16T06:27:14;2.90;;;2.10;;
4525;SDS011;2275;52.208;8.804;2022-10-16T06:29:41;5.12;;;2.47;;
4525;SDS011;2275;52.208;8.804;2022-10-16T06:32:09;3.60;;;2.08;;
4525;SDS011;2275;52.208;8.804;2022-10-16T06:34:36;5.13;;;2.17;;
4525;SDS011;2275;52.208;8.804;2022-10-16T06:37:03;2.80;;;1.70;;
4525;SDS011;2275;52.208;8.804;2022-10-16T06:39:30;3.08;;;1.80;;
4525;SDS011;2275;52.208;8.804;2022-10-16T06:41:57;2.53;;;1.85;;
4525;SDS011;2275;52.208;8.804;2022-10-16T06:44:24;5.37;;;2.00;;
4525;SDS011;2275;52.208;8.804;2022-10-16T06:46:51;5.43;;;1.60;;
4525;SDS011;2275;52.208;8.804;2022-10-16T06:49:18;3.25;;;1.80;;
4525;SDS011;2275;52.208;8.804;2022-10-16T06:51:46;3.90;;;1.87;;
4525;SDS011;2275;52.208;8.804;2022-10-16T06:54:14;4.00;;;1.83;;
4525;SDS011;2275;52.208;8.804;2022-10-16T06:56:41;3.45;;;1.65;;
4525;SDS011;2275;52.208;8.804;2022-10-16T06:59:08;5.40;;;2.37;;
4525;SDS011;2275;52.208;8.804;2022-10-16T07:01:35;3.67;;;2.00;;
4525;SDS011;2275;52.208;8.804;2022-10-16T07:04:03;2.50;;;1.62;;
4525;SDS011;2275;52.208;8.804;2022-10-16T07:06:31;5.90;;;1.80;;
4525;SDS011;2275;52.208;8.804;2022-10-16T07:08:58;3.00;;;2.00;;
4525;SDS011;2275;52.208;8.804;2022-10-16T07:11:25;5.20;;;1.87;;
4525;SDS011;2275;52.208;8.804;2022-10-16T07:13:52;2.50;;;1.65;;
4525;SDS011;2275;52.208;8.804;2022-10-16T07:16:21;5.60;;;1.85;;
4525;SDS011;2275;52.208;8.804;2022-10-16T07:18:47;3.70;;;1.80;;
4525;SDS011;2275;52.208;8.804;2022-10-16T07:21:16;2.37;;;1.60;;
4525;SDS011;2275;52.208;8.804;2022-10-16T07:23:43;4.40;;;2.10;;
4525;SDS011;2275;52.208;8.804;2022-10-16T07:26:10;2.50;;;1.87;;
4525;SDS011;2275;52.208;8.804;2022-10-16T07:28:38;4.25;;;1.90;;
4525;SDS011;2275;52.208;8.804;2022-10-16T07:31:06;2.85;;;1.73;;
4525;SDS011;2275;52.208;8.804;2022-10-16T07:33:33;4.20;;;2.05;;
4525;SDS011;2275;52.208;8.804;2022-10-16T07:36:00;2.83;;;1.70;;
4525;SDS011;2275;52.208;8.804;2022-10-16T07:38:27;3.20;;;1.80;;
4525;SDS011;2275;52.208;8.804;2022-10-16T07:40:57;3.28;;;1.90;;
4525;SDS011;2275;52.208;8.804;2022-10-16T07:43:24;4.95;;;2.20;;
4525;SDS011;2275;52.208;8.804;2022-10-16T07:45:52;4.93;;;2.00;;
4525;SDS011;2275;52.208;8.804;2022-10-16T07:48:19;4.28;;;1.80;;
4525;SDS011;2275;52.208;8.804;2022-10-16T07:50:46;4.75;;;2.00;;
4525;SDS011;2275;52.208;8.804;2022-10-16T07:53:14;3.97;;;1.77;;
4525;SDS011;2275;52.208;8.804;2022-10-16T07:55:41;3.77;;;2.00;;
4525;SDS011;2275;52.208;8.804;2022-10-16T07:58:08;5.03;;;1.90;;
4525;SDS011;2275;52.208;8.804;2022-10-16T08:00:36;2.30;;;1.73;;
4525;SDS011;2275;52.208;8.804;2022-10-16T08:03:03;4.20;;;2.00;;
4525;SDS011;2275;52.208;8.804;2022-10-16T08:05:31;3.67;;;1.98;;
4525;SDS011;2275;52.208;8.804;2022-10-16T08:07:58;4.35;;;2.10;;
4525;SDS011;2275;52.208;8.804;2022-10-16T08:10:26;4.93;;;1.90;;
4525;SDS011;2275;52.208;8.804;2022-10-16T08:12:53;4.40;;;2.20;;
4525;SDS011;2275;52.208;8.804;2022-10-16T08:15:21;2.80;;;1.80;;
4525;SDS011;2275;52.208;8.804;2022-10-16T08:17:54;3.05;;;1.77;;
4525;SDS011;2275;52.208;8.804;2022-10-16T08:20:20;4.50;;;1.90;;
4525;SDS011;2275;52.208;8.804;2022-10-16T08:22:48;3.42;;;1.80;;
4525;SDS011;2275;52.208;8.804;2022-10-16T08:25:14;3.22;;;1.67;;
4525;SDS011;2275;52.208;8.804;2022-10-16T08:27:41;4.65;;;2.20;;
4525;SDS011;2275;52.208;8.804;2022-10-16T08:30:09;6.05;;;2.08;;
4525;SDS011;2275;52.208;8.804;2022-10-16T08:32:37;3.80;;;1.75;;
4525;SDS011;2275;52.208;8.804;2022-10-16T08:35:05;4.50;;;2.00;;
4525;SDS011;2275;52.208;8.804;2022-10-16T08:37:32;5.60;;;2.10;;
4525;SDS011;2275;52.208;8.804;2022-10-16T08:39:59;2.72;;;1.90;;
4525;SDS011;2275;52.208;8.804;2022-10-16T08:42:31;5.57;;;2.10;;
4525;SDS011;2275;52.208;8.804;2022-10-16T08:45:34;3.58;;;2.35;;
4525;SDS011;2275;52.208;8.804;2022-10-16T08:48:00;4.47;;;2.05;;
4525;SDS011;2275;52.208;8.804;2022-10-16T08:50:26;3.40;;;2.20;;
4525;SDS011;2275;52.208;8.804;2022-10-16T08:52:53;3.12;;;2.03;;
4525;SDS011;2275;52.208;8.804;2022-10-16T08:55:37;2.85;;;2.40;;
4525;SDS011;2275;52.208;8.804;2022-10-16T08:58:09;5.32;;;2.40;;
4525;SDS011;2275;52.208;8.804;2022-10-16T09:00:39;3.72;;;2.22;;
4525;SDS011;2275;52.208;8.804;2022-10-16T09:05:47;4.25;;;2.00;;
4525;SDS011;2275;52.208;8.804;2022-10-16T09:08:18;5.50;;;2.25;;
4525;SDS011;2275;52.208;8.804;2022-10-16T09:10:58;3.65;;;2.33;;
4525;SDS011;2275;52.208;8.804;2022-10-16T09:13:34;4.12;;;1.60;;
4525;SDS011;2275;52.208;8.804;2022-10-16T09:16:10;2.92;;;2.20;;
4525;SDS011;2275;52.208;8.804;2022-10-16T09:18:36;4.20;;;2.05;;
4525;SDS011;2275;52.208;8.804;2022-10-16T09:21:09;3.60;;;1.70;;
4525;SDS011;2275;52.208;8.804;2022-10-16T09:23:40;4.10;;;2.00;;
4525;SDS011;2275;52.208;8.804;2022-10-16T09:26:09;4.70;;;2.30;;
4525;SDS011;2275;52.208;8.804;2022-10-16T09:28:34;5.30;;;2.10;;
4525;SDS011;2275;52.208;8.804;2022-10-16T09:31:01;4.00;;;2.07;;
4525;SDS011;2275;52.208;8.804;2022-10-16T09:33:29;3.47;;;1.70;;
4525;SDS011;2275;52.208;8.804;2022-10-16T09:35:56;4.75;;;2.10;;
4525;SDS011;2275;52.208;8.804;2022-10-16T09:38:26;2.80;;;1.77;;
4525;SDS011;2275;52.208;8.804;2022-10-16T09:40:54;4.10;;;1.80;;
4525;SDS011;2275;52.208;8.804;2022-10-16T09:43:24;6.53;;;1.90;;
4525;SDS011;2275;52.208;8.804;2022-10-16T09:45:54;4.10;;;1.80;;
4525;SDS011;2275;52.208;8.804;2022-10-16T09:48:22;3.50;;;2.67;;
4525;SDS011;2275;52.208;8.804;2022-10-16T09:50:55;4.90;;;2.33;;
4525;SDS011;2275;52.208;8.804;2022-10-16T09:53:23;6.73;;;4.10;;
4525;SDS011;2275;52.208;8.804;2022-10-16T09:55:50;5.33;;;2.00;;
4525;SDS011;2275;52.208;8.804;2022-10-16T09:58:17;2.83;;;1.77;;
4525;SDS011;2275;52.208;8.804;2022-10-16T10:00:48;5.97;;;1.90;;
4525;SDS011;2275;52.208;8.804;2022-10-16T10:03:21;5.37;;;2.30;;
4525;SDS011;2275;52.208;8.804;2022-10-16T10:05:48;4.03;;;2.07;;
4525;SDS011;2275;52.208;8.804;2022-10-16T10:08:15;3.83;;;1.90;;
4525;SDS011;2275;52.208;8.804;2022-10-16T10:10:42;6.23;;;2.10;;
4525;SDS011;2275;52.208;8.804;2022-10-16T10:15:45;4.30;;;2.10;;
4525;SDS011;2275;52.208;8.804;2022-10-16T10:18:15;3.67;;;2.07;;
4525;SDS011;2275;52.208;8.804;2022-10-16T10:20:45;6.27;;;1.87;;
4525;SDS011;2275;52.208;8.804;2022-10-16T10:25:52;6.23;;;2.00;;
4525;SDS011;2275;52.208;8.804;2022-10-16T10:28:42;3.33;;;1.77;;
4525;SDS011;2275;52.208;8.804;2022-10-16T10:31:24;4.47;;;2.00;;
4525;SDS011;2275;52.208;8.804;2022-10-16T10:34:03;4.97;;;2.10;;
4525;SDS011;2275;52.208;8.804;2022-10-16T10:36:42;5.40;;;2.47;;
4525;SDS011;2275;52.208;8.804;2022-10-16T10:39:14;3.73;;;2.00;;
4525;SDS011;2275;52.208;8.804;2022-10-16T10:42:15;4.90;;;2.35;;
4525;SDS011;2275;52.208;8.804;2022-10-16T10:44:51;5.90;;;2.00;;
4525;SDS011;2275;52.208;8.804;2022-10-16T10:47:26;5.23;;;2.50;;
4525;SDS011;2275;52.208;8.804;2022-10-16T10:50:12;5.20;;;2.33;;
4525;SDS011;2275;52.208;8.804;2022-10-16T10:53:45;4.43;;;1.97;;
4525;SDS011;2275;52.208;8.804;2022-10-16T10:55:44;5.07;;;2.23;;
4525;SDS011;2275;52.208;8.804;2022-10-16T11:01:14;7.00;;;2.50;;
4525;SDS011;2275;52.208;8.804;2022-10-16T11:06:50;4.73;;;1.87;;
4525;SDS011;2275;52.208;8.804;2022-10-16T11:09:18;4.87;;;2.23;;
4525;SDS011;2275;52.208;8.804;2022-10-16T11:11:49;3.73;;;1.93;;
4525;SDS011;2275;52.208;8.804;2022-10-16T11:14:22;5.20;;;2.60;;
4525;SDS011;2275;52.208;8.804;2022-10-16T11:16:56;4.00;;;1.87;;
4525;SDS011;2275;52.208;8.804;2022-10-16T11:19:34;5.97;;;2.30;;
4525;SDS011;2275;52.208;8.804;2022-10-16T11:22:11;6.70;;;2.47;;
4525;SDS011;2275;52.208;8.804;2022-10-16T11:24:51;4.20;;;2.40;;
4525;SDS011;2275;52.208;8.804;2022-10-16T11:27:55;8.77;;;2.20;;
4525;SDS011;2275;52.208;8.804;2022-10-16T11:30:06;2.90;;;1.93;;
4525;SDS011;2275;52.208;8.804;2022-10-16T11:32:36;6.20;;;1.93;;
4525;SDS011;2275;52.208;8.804;2022-10-16T11:35:02;3.50;;;1.60;;
4525;SDS011;2275;52.208;8.804;2022-10-16T11:37:31;5.43;;;2.30;;
4525;SDS011;2275;52.208;8.804;2022-10-16T11:40:02;3.77;;;2.17;;
4525;SDS011;2275;52.208;8.804;2022-10-16T11:42:27;6.07;;;2.20;;
4525;SDS011;2275;52.208;8.804;2022-10-16T11:44:57;4.65;;;2.00;;
4525;SDS011;2275;52.208;8.804;2022-10-16T11:47:31;4.12;;;1.90;;
4525;SDS011;2275;52.208;8.804;2022-10-16T11:50:20;4.00;;;2.30;;
4525;SDS011;2275;52.208;8.804;2022-10-16T11:53:00;4.67;;;2.30;;
4525;SDS011;2275;52.208;8.804;2022-10-16T11:55:34;3.08;;;2.00;;
4525;SDS011;2275;52.208;8.804;2022-10-16T11:58:04;4.20;;;1.67;;
4525;SDS011;2275;52.208;8.804;2022-10-16T12:00:32;4.40;;;1.60;;
4525;SDS011;2275;52.208;8.804;2022-10-16T12:03:02;2.23;;;1.50;;
4525;SDS011;2275;52.208;8.804;2022-10-16T12:05:35;3.75;;;2.00;;
4525;SDS011;2275;52.208;8.804;2022-10-16T12:08:19;5.00;;;1.85;;
4525;SDS011;2275;52.208;8.804;2022-10-16T12:10:47;8.70;;;1.97;;
4525;SDS011;2275;52.208;8.804;2022-10-16T12:16:03;3.47;;;1.80;;
4525;SDS011;2275;52.208;8.804;2022-10-16T12:18:21;7.43;;;2.10;;
4525;SDS011;2275;52.208;8.804;2022-10-16T12:20:55;4.20;;;2.00;;
4525;SDS011;2275;52.208;8.804;2022-10-16T12:23:26;2.97;;;2.03;;
4525;SDS011;2275;52.208;8.804;2022-10-16T12:25:54;4.50;;;2.10;;
4525;SDS011;2275;52.208;8.804;2022-10-16T12:28:26;3.78;;;2.25;;
4525;SDS011;2275;52.208;8.804;2022-10-16T12:30:53;3.93;;;2.03;;
4525;SDS011;2275;52.208;8.804;2022-10-16T12:33:24;5.53;;;2.17;;
4525;SDS011;2275;52.208;8.804;2022-10-16T12:35:51;3.17;;;2.10;;
4525;SDS011;2275;52.208;8.804;2022-10-16T12:38:19;4.20;;;2.23;;
4525;SDS011;2275;52.208;8.804;2022-10-16T12:40:46;5.68;;;2.30;;
4525;SDS011;2275;52.208;8.804;2022-10-16T12:43:35;4.57;;;2.53;;
4525;SDS011;2275;52.208;8.804;2022-10-16T12:46:22;3.27;;;2.23;;
4525;SDS011;2275;52.208;8.804;2022-10-16T12:49:17;4.80;;;2.30;;
4525;SDS011;2275;52.208;8.804;2022-10-16T12:51:52;5.87;;;2.70;;
4525;SDS011;2275;52.208;8.804;2022-10-16T12:54:21;6.00;;;2.50;;
4525;SDS011;2275;52.208;8.804;2022-10-16T12:56:57;6.80;;;3.40;;
4525;SDS011;2275;52.208;8.804;2022-10-16T13:04:54;5.03;;;2.50;;
4525;SDS011;2275;52.208;8.804;2022-10-16T13:07:38;3.60;;;2.43;;
4525;SDS011;2275;52.208;8.804;2022-10-16T13:10:14;6.70;;;3.20;;
4525;SDS011;2275;52.208;8.804;2022-10-16T13:13:02;4.03;;;2.43;;
4525;SDS011;2275;52.208;8.804;2022-10-16T13:18:24;3.10;;;2.53;;
4525;SDS011;2275;52.208;8.804;2022-10-16T13:22:15;6.23;;;2.47;;
4525;SDS011;2275;52.208;8.804;2022-10-16T13:23:54;4.77;;;2.53;;
4525;SDS011;2275;52.208;8.804;2022-10-16T13:26:22;3.85;;;2.45;;
4525;SDS011;2275;52.208;8.804;2022-10-16T13:29:02;6.10;;;2.50;;
4525;SDS011;2275;52.208;8.804;2022-10-16T13:31:29;6.53;;;2.23;;
4525;SDS011;2275;52.208;8.804;2022-10-16T13:33:57;5.13;;;2.53;;
4525;SDS011;2275;52.208;8.804;2022-10-16T13:36:26;4.67;;;1.90;;
4525;SDS011;2275;52.208;8.804;2022-10-16T13:39:06;5.40;;;2.10;;
4525;SDS011;2275;52.208;8.804;2022-10-16T13:41:33;5.73;;;2.10;;
4525;SDS011;2275;52.208;8.804;2022-10-16T13:44:00;4.17;;;2.00;;
4525;SDS011;2275;52.208;8.804;2022-10-16T13:46:27;3.43;;;2.23;;
4525;SDS011;2275;52.208;8.804;2022-10-16T13:48:56;6.35;;;2.60;;
4525;SDS011;2275;52.208;8.804;2022-10-16T13:51:23;4.30;;;2.37;;
4525;SDS011;2275;52.208;8.804;2022-10-16T13:53:50;5.20;;;2.30;;
4525;SDS011;2275;52.208;8.804;2022-10-16T13:56:20;5.70;;;3.00;;
4525;SDS011;2275;52.208;8.804;2022-10-16T13:58:45;5.63;;;3.13;;
4525;SDS011;2275;52.208;8.804;2022-10-16T14:01:15;7.25;;;3.20;;
4525;SDS011;2275;52.208;8.804;2022-10-16T14:03:43;7.10;;;2.70;;
4525;SDS011;2275;52.208;8.804;2022-10-16T14:06:11;3.50;;;2.10;;
4525;SDS011;2275;52.208;8.804;2022-10-16T14:08:40;4.00;;;2.60;;
4525;SDS011;2275;52.208;8.804;2022-10-16T14:11:04;3.67;;;2.50;;
4525;SDS011;2275;52.208;8.804;2022-10-16T14:13:34;3.80;;;2.22;;
4525;SDS011;2275;52.208;8.804;2022-10-16T14:16:02;6.87;;;2.57;;
4525;SDS011;2275;52.208;8.804;2022-10-16T14:18:27;4.70;;;2.10;;
4525;SDS011;2275;52.208;8.804;2022-10-16T14:20:54;3.73;;;2.30;;
4525;SDS011;2275;52.208;8.804;2022-10-16T14:23:23;3.80;;;2.00;;
4525;SDS011;2275;52.208;8.804;2022-10-16T14:25:49;5.87;;;2.50;;
4525;SDS011;2275;52.208;8.804;2022-10-16T14:28:17;2.60;;;2.30;;
4525;SDS011;2275;52.208;8.804;2022-10-16T14:30:49;14.43;;;7.97;;
4525;SDS011;2275;52.208;8.804;2022-10-16T14:35:58;4.93;;;2.60;;
4525;SDS011;2275;52.208;8.804;2022-10-16T14:38:30;5.00;;;2.40;;
4525;SDS011;2275;52.208;8.804;2022-10-16T14:40:58;7.20;;;2.73;;
4525;SDS011;2275;52.208;8.804;2022-10-16T14:43:34;3.53;;;2.30;;
4525;SDS011;2275;52.208;8.804;2022-10-16T14:46:02;5.00;;;2.87;;
4525;SDS011;2275;52.208;8.804;2022-10-16T14:48:29;3.87;;;2.80;;
4525;SDS011;2275;52.208;8.804;2022-10-16T14:50:56;6.18;;;3.20;;
4525;SDS011;2275;52.208;8.804;2022-10-16T14:53:23;3.70;;;2.83;;
4525;SDS011;2275;52.208;8.804;2022-10-16T14:55:50;8.27;;;4.53;;
4525;SDS011;2275;52.208;8.804;2022-10-16T14:58:18;3.37;;;2.47;;
4525;SDS011;2275;52.208;8.804;2022-10-16T15:00:45;6.30;;;2.53;;
4525;SDS011;2275;52.208;8.804;2022-10-16T15:03:11;5.75;;;2.60;;
4525;SDS011;2275;52.208;8.804;2022-10-16T15:05:38;3.50;;;2.53;;
4525;SDS011;2275;52.208;8.804;2022-10-16T15:08:06;4.67;;;2.20;;
4525;SDS011;2275;52.208;8.804;2022-10-16T15:10:35;3.40;;;2.53;;
4525;SDS011;2275;52.208;8.804;2022-10-16T15:13:00;5.53;;;2.70;;
4525;SDS011;2275;52.208;8.804;2022-10-16T15:15:30;6.80;;;3.40;;
4525;SDS011;2275;52.208;8.804;2022-10-16T15:17:56;5.93;;;3.27;;
4525;SDS011;2275;52.208;8.804;2022-10-16T15:20:24;7.60;;;3.90;;
4525;SDS011;2275;52.208;8.804;2022-10-16T15:22:51;7.27;;;4.70;;
4525;SDS011;2275;52.208;8.804;2022-10-16T15:25:30;8.33;;;5.53;;
4525;SDS011;2275;52.208;8.804;2022-10-16T15:27:59;6.68;;;4.50;;
4525;SDS011;2275;52.208;8.804;2022-10-16T15:30:26;5.77;;;3.97;;
4525;SDS011;2275;52.208;8.804;2022-10-16T15:32:53;8.20;;;3.70;;
4525;SDS011;2275;52.208;8.804;2022-10-16T15:35:20;7.60;;;3.73;;
4525;SDS011;2275;52.208;8.804;2022-10-16T15:37:47;7.57;;;3.10;;
4525;SDS011;2275;52.208;8.804;2022-10-16T15:40:16;6.37;;;4.20;;
4525;SDS011;2275;52.208;8.804;2022-10-16T15:42:43;7.05;;;3.20;;
4525;SDS011;2275;52.208;8.804;2022-10-16T15:45:11;6.43;;;3.30;;
4525;SDS011;2275;52.208;8.804;2022-10-16T15:50:27;5.50;;;2.80;;
4525;SDS011;2275;52.208;8.804;2022-10-16T15:52:54;4.13;;;2.83;;
4525;SDS011;2275;52.208;8.804;2022-10-16T15:55:21;6.37;;;2.73;;
4525;SDS011;2275;52.208;8.804;2022-10-16T15:57:48;5.83;;;3.80;;
4525;SDS011;2275;52.208;8.804;2022-10-16T16:00:17;4.60;;;3.87;;
4525;SDS011;2275;52.208;8.804;2022-10-16T16:02:43;6.07;;;4.30;;
4525;SDS011;2275;52.208;8.804;2022-10-16T16:05:10;14.65;;;5.28;;
4525;SDS011;2275;52.208;8.804;2022-10-16T16:07:37;7.20;;;3.40;;